sensor_id;sensor_type;location;lat;lon;timestamp;P1;durP1;ratioP1;P2;durP2;ratioP2
55136;SDS011;41032;47.818;-3.732;2022-08-11T00:01:44;6.38;;;1.67;;
55136;SDS011;41032;47.818;-3.732;2022-08-11T00:04:15;3.15;;;1.73;;
55136;SDS011;41032;47.818;-3.732;2022-08-11T00:06:44;5.75;;;1.70;;
55136;SDS011;41032;47.818;-3.732;2022-08-11T00:09:15;5.55;;;1.80;;
55136;SDS011;41032;47.818;-3.732;2022-08-11T00:11:47;4.90;;;1.95;;
55136;SDS011;41032;47.818;-3.732;2022-08-11T00:14:20;7.47;;;1.73;;
55136;SDS011;41032;47.818;-3.732;2022-08-11T00:19:25;3.35;;;1.40;;
55136;SDS011;41032;47.818;-3.732;2022-08-11T00:21:55;5.40;;;1.58;;
55136;SDS011;41032;47.818;-3.732;2022-08-11T00:24:25;6.50;;;2.00;;
55136;SDS011;41032;47.818;-3.732;2022-08-11T00:27:00;7.55;;;2.05;;
55136;SDS011;41032;47.818;-3.732;2022-08-11T00:29:29;4.80;;;1.80;;
55136;SDS011;41032;47.818;-3.732;2022-08-11T00:31:57;5.90;;;2.42;;
55136;SDS011;41032;47.818;-3.732;2022-08-11T00:34:30;8.18;;;1.85;;
55136;SDS011;41032;47.818;-3.732;2022-08-11T00:37:02;13.07;;;1.80;;
55136;SDS011;41032;47.818;-3.732;2022-08-11T00:39:33;3.15;;;1.60;;
55136;SDS011;41032;47.818;-3.732;2022-08-11T00:42:10;6.63;;;1.80;;
55136;SDS011;41032;47.818;-3.732;2022-08-11T00:47:52;5.00;;;2.00;;
55136;SDS011;41032;47.818;-3.732;2022-08-11T00:53:45;5.25;;;2.03;;
55136;SDS011;41032;47.818;-3.732;2022-08-11T00:55:59;5.15;;;1.88;;
55136;SDS011;41032;47.818;-3.732;2022-08-11T01:01:41;3.70;;;1.85;;
55136;SDS011;41032;47.818;-3.732;2022-08-11T01:04:37;3.15;;;1.48;;
55136;SDS011;41032;47.818;-3.732;2022-08-11T01:35:26;4.13;;;1.55;;
55136;SDS011;41032;47.818;-3.732;2022-08-11T01:46:43;3.58;;;1.50;;
55136;SDS011;41032;47.818;-3.732;2022-08-11T01:49:31;5.70;;;1.90;;
55136;SDS011;41032;47.818;-3.732;2022-08-11T01:52:20;6.18;;;1.90;;
55136;SDS011;41032;47.818;-3.732;2022-08-11T01:57:46;4.78;;;1.73;;
55136;SDS011;41032;47.818;-3.732;2022-08-11T02:00:24;7.93;;;2.30;;
55136;SDS011;41032;47.818;-3.732;2022-08-11T02:03:00;5.28;;;2.30;;
55136;SDS011;41032;47.818;-3.732;2022-08-11T02:05:43;6.40;;;1.85;;
55136;SDS011;41032;47.818;-3.732;2022-08-11T02:16:47;5.18;;;1.63;;
55136;SDS011;41032;47.818;-3.732;2022-08-11T02:25:23;4.45;;;1.98;;
55136;SDS011;41032;47.818;-3.732;2022-08-11T02:28:02;6.78;;;2.40;;
55136;SDS011;41032;47.818;-3.732;2022-08-11T02:30:37;4.38;;;2.10;;
55136;SDS011;41032;47.818;-3.732;2022-08-11T02:35:56;3.58;;;1.63;;
55136;SDS011;41032;47.818;-3.732;2022-08-11T02:40:59;4.80;;;1.58;;
55136;SDS011;41032;47.818;-3.732;2022-08-11T02:43:56;4.20;;;2.00;;
55136;SDS011;41032;47.818;-3.732;2022-08-11T02:46:28;6.18;;;1.90;;
55136;SDS011;41032;47.818;-3.732;2022-08-11T02:52:02;7.18;;;2.08;;
55136;SDS011;41032;47.818;-3.732;2022-08-11T02:57:41;2.83;;;1.63;;
55136;SDS011;41032;47.818;-3.732;2022-08-11T03:00:16;5.90;;;1.83;;
55136;SDS011;41032;47.818;-3.732;2022-08-11T03:05:53;6.32;;;1.73;;
55136;SDS011;41032;47.818;-3.732;2022-08-11T03:08:31;6.03;;;1.98;;
55136;SDS011;41032;47.818;-3.732;2022-08-11T03:17:36;4.78;;;1.85;;
55136;SDS011;41032;47.818;-3.732;2022-08-11T03:22:36;7.05;;;1.90;;
55136;SDS011;41032;47.818;-3.732;2022-08-11T03:26:10;4.43;;;1.70;;
55136;SDS011;41032;47.818;-3.732;2022-08-11T03:33:38;5.03;;;1.67;;
55136;SDS011;41032;47.818;-3.732;2022-08-11T03:39:47;4.43;;;1.75;;
55136;SDS011;41032;47.818;-3.732;2022-08-11T03:42:27;4.47;;;1.50;;
55136;SDS011;41032;47.818;-3.732;2022-08-11T03:51:16;7.82;;;2.17;;
55136;SDS011;41032;47.818;-3.732;2022-08-11T04:06:35;9.07;;;2.10;;
55136;SDS011;41032;47.818;-3.732;2022-08-11T04:24:36;4.95;;;1.70;;
55136;SDS011;41032;47.818;-3.732;2022-08-11T04:35:18;3.75;;;1.92;;
55136;SDS011;41032;47.818;-3.732;2022-08-11T04:40:54;3.20;;;1.52;;
55136;SDS011;41032;47.818;-3.732;2022-08-11T04:43:30;5.10;;;1.90;;
55136;SDS011;41032;47.818;-3.732;2022-08-11T04:55:42;6.18;;;1.90;;
55136;SDS011;41032;47.818;-3.732;2022-08-11T05:13:48;8.13;;;2.03;;
55136;SDS011;41032;47.818;-3.732;2022-08-11T05:16:58;7.07;;;1.83;;
55136;SDS011;41032;47.818;-3.732;2022-08-11T05:19:45;4.35;;;2.05;;
55136;SDS011;41032;47.818;-3.732;2022-08-11T05:22:33;6.63;;;1.80;;
55136;SDS011;41032;47.818;-3.732;2022-08-11T05:25:21;6.35;;;1.80;;
55136;SDS011;41032;47.818;-3.732;2022-08-11T05:28:14;2.92;;;1.65;;
55136;SDS011;41032;47.818;-3.732;2022-08-11T05:31:19;7.57;;;2.15;;
55136;SDS011;41032;47.818;-3.732;2022-08-11T05:34:10;5.85;;;2.08;;
55136;SDS011;41032;47.818;-3.732;2022-08-11T05:37:03;4.85;;;2.40;;
55136;SDS011;41032;47.818;-3.732;2022-08-11T05:39:44;6.25;;;1.75;;
55136;SDS011;41032;47.818;-3.732;2022-08-11T05:42:33;7.43;;;2.40;;
55136;SDS011;41032;47.818;-3.732;2022-08-11T05:45:24;5.55;;;1.90;;
55136;SDS011;41032;47.818;-3.732;2022-08-11T05:48:12;3.03;;;1.77;;
55136;SDS011;41032;47.818;-3.732;2022-08-11T05:51:00;4.53;;;1.52;;
55136;SDS011;41032;47.818;-3.732;2022-08-11T05:53:49;10.20;;;1.73;;
55136;SDS011;41032;47.818;-3.732;2022-08-11T05:56:58;7.05;;;1.70;;
55136;SDS011;41032;47.818;-3.732;2022-08-11T05:59:25;4.55;;;1.90;;
55136;SDS011;41032;47.818;-3.732;2022-08-11T06:02:04;2.58;;;1.55;;
55136;SDS011;41032;47.818;-3.732;2022-08-11T06:04:33;3.38;;;1.88;;
55136;SDS011;41032;47.818;-3.732;2022-08-11T06:07:03;4.32;;;1.75;;
55136;SDS011;41032;47.818;-3.732;2022-08-11T06:09:35;4.45;;;1.60;;
55136;SDS011;41032;47.818;-3.732;2022-08-11T06:14:33;5.03;;;1.83;;
55136;SDS011;41032;47.818;-3.732;2022-08-11T06:17:08;13.10;;;3.00;;
55136;SDS011;41032;47.818;-3.732;2022-08-11T06:19:37;8.02;;;1.52;;
55136;SDS011;41032;47.818;-3.732;2022-08-11T06:22:08;2.58;;;1.50;;
55136;SDS011;41032;47.818;-3.732;2022-08-11T06:24:37;3.67;;;1.65;;
55136;SDS011;41032;47.818;-3.732;2022-08-11T06:27:07;4.72;;;2.08;;
55136;SDS011;41032;47.818;-3.732;2022-08-11T06:29:36;6.25;;;1.90;;
55136;SDS011;41032;47.818;-3.732;2022-08-11T06:32:11;6.30;;;2.38;;
55136;SDS011;41032;47.818;-3.732;2022-08-11T06:34:48;6.07;;;1.70;;
55136;SDS011;41032;47.818;-3.732;2022-08-11T06:37:26;8.45;;;1.95;;
55136;SDS011;41032;47.818;-3.732;2022-08-11T06:40:10;8.87;;;1.83;;
55136;SDS011;41032;47.818;-3.732;2022-08-11T06:42:45;5.68;;;2.10;;
55136;SDS011;41032;47.818;-3.732;2022-08-11T06:48:32;6.80;;;2.30;;
55136;SDS011;41032;47.818;-3.732;2022-08-11T06:51:02;8.23;;;1.88;;
55136;SDS011;41032;47.818;-3.732;2022-08-11T06:53:38;4.85;;;1.88;;
55136;SDS011;41032;47.818;-3.732;2022-08-11T06:56:10;4.25;;;1.50;;
55136;SDS011;41032;47.818;-3.732;2022-08-11T06:58:58;7.03;;;1.80;;
55136;SDS011;41032;47.818;-3.732;2022-08-11T07:04:28;4.60;;;1.92;;
55136;SDS011;41032;47.818;-3.732;2022-08-11T07:13:45;3.58;;;1.95;;
55136;SDS011;41032;47.818;-3.732;2022-08-11T07:16:32;4.13;;;1.60;;
55136;SDS011;41032;47.818;-3.732;2022-08-11T07:19:01;8.55;;;1.90;;
55136;SDS011;41032;47.818;-3.732;2022-08-11T07:21:51;6.18;;;1.73;;
55136;SDS011;41032;47.818;-3.732;2022-08-11T07:24:41;6.30;;;1.98;;
55136;SDS011;41032;47.818;-3.732;2022-08-11T07:27:35;3.40;;;1.65;;
55136;SDS011;41032;47.818;-3.732;2022-08-11T07:30:28;3.80;;;1.40;;
55136;SDS011;41032;47.818;-3.732;2022-08-11T07:32:58;3.28;;;1.90;;
55136;SDS011;41032;47.818;-3.732;2022-08-11T07:35:48;3.58;;;1.60;;
55136;SDS011;41032;47.818;-3.732;2022-08-11T07:38:18;7.85;;;1.73;;
55136;SDS011;41032;47.818;-3.732;2022-08-11T07:40:49;5.68;;;1.65;;
55136;SDS011;41032;47.818;-3.732;2022-08-11T07:43:18;5.50;;;1.80;;
55136;SDS011;41032;47.818;-3.732;2022-08-11T07:45:47;5.28;;;1.73;;
55136;SDS011;41032;47.818;-3.732;2022-08-11T07:48:34;6.07;;;1.85;;
55136;SDS011;41032;47.818;-3.732;2022-08-11T07:51:21;2.80;;;1.30;;
55136;SDS011;41032;47.818;-3.732;2022-08-11T07:54:08;9.30;;;1.60;;
55136;SDS011;41032;47.818;-3.732;2022-08-11T07:56:38;4.68;;;1.73;;
55136;SDS011;41032;47.818;-3.732;2022-08-11T07:59:08;4.25;;;1.58;;
55136;SDS011;41032;47.818;-3.732;2022-08-11T08:01:55;3.40;;;1.58;;
55136;SDS011;41032;47.818;-3.732;2022-08-11T08:04:44;3.97;;;1.50;;
55136;SDS011;41032;47.818;-3.732;2022-08-11T08:07:31;5.72;;;1.42;;
55136;SDS011;41032;47.818;-3.732;2022-08-11T08:10:19;4.28;;;1.55;;
55136;SDS011;41032;47.818;-3.732;2022-08-11T08:13:06;4.38;;;1.52;;
55136;SDS011;41032;47.818;-3.732;2022-08-11T08:15:54;3.38;;;1.80;;
55136;SDS011;41032;47.818;-3.732;2022-08-11T08:18:41;3.35;;;1.40;;
55136;SDS011;41032;47.818;-3.732;2022-08-11T08:21:11;7.82;;;1.42;;
55136;SDS011;41032;47.818;-3.732;2022-08-11T08:23:42;2.47;;;1.73;;
55136;SDS011;41032;47.818;-3.732;2022-08-11T08:26:12;5.20;;;1.60;;
55136;SDS011;41032;47.818;-3.732;2022-08-11T08:29:01;5.05;;;1.60;;
55136;SDS011;41032;47.818;-3.732;2022-08-11T08:31:50;2.30;;;1.40;;
55136;SDS011;41032;47.818;-3.732;2022-08-11T08:34:20;9.05;;;1.75;;
55136;SDS011;41032;47.818;-3.732;2022-08-11T08:36:50;6.38;;;1.30;;
55136;SDS011;41032;47.818;-3.732;2022-08-11T08:39:19;5.72;;;1.50;;
55136;SDS011;41032;47.818;-3.732;2022-08-11T08:41:51;3.15;;;1.35;;
55136;SDS011;41032;47.818;-3.732;2022-08-11T08:44:22;3.53;;;1.40;;
55136;SDS011;41032;47.818;-3.732;2022-08-11T08:46:53;4.78;;;1.60;;
55136;SDS011;41032;47.818;-3.732;2022-08-11T08:49:25;6.32;;;1.50;;
55136;SDS011;41032;47.818;-3.732;2022-08-11T08:52:00;2.80;;;1.30;;
55136;SDS011;41032;47.818;-3.732;2022-08-11T08:54:34;3.92;;;1.30;;
55136;SDS011;41032;47.818;-3.732;2022-08-11T08:57:04;11.70;;;1.73;;
55136;SDS011;41032;47.818;-3.732;2022-08-11T08:59:36;2.65;;;1.55;;
55136;SDS011;41032;47.818;-3.732;2022-08-11T09:02:07;4.03;;;1.25;;
55136;SDS011;41032;47.818;-3.732;2022-08-11T09:04:38;5.43;;;1.20;;
55136;SDS011;41032;47.818;-3.732;2022-08-11T09:07:09;2.72;;;1.50;;
55136;SDS011;41032;47.818;-3.732;2022-08-11T09:09:41;6.20;;;1.38;;
55136;SDS011;41032;47.818;-3.732;2022-08-11T09:12:10;1.98;;;1.23;;
55136;SDS011;41032;47.818;-3.732;2022-08-11T09:14:41;2.25;;;1.23;;
55136;SDS011;41032;47.818;-3.732;2022-08-11T09:17:50;10.30;;;1.48;;
55136;SDS011;41032;47.818;-3.732;2022-08-11T09:20:23;6.72;;;1.83;;
55136;SDS011;41032;47.818;-3.732;2022-08-11T09:22:55;2.95;;;1.48;;
55136;SDS011;41032;47.818;-3.732;2022-08-11T09:25:44;6.43;;;1.27;;
55136;SDS011;41032;47.818;-3.732;2022-08-11T09:28:31;10.43;;;1.95;;
55136;SDS011;41032;47.818;-3.732;2022-08-11T09:31:01;5.50;;;1.10;;
55136;SDS011;41032;47.818;-3.732;2022-08-11T09:33:30;5.38;;;1.33;;
55136;SDS011;41032;47.818;-3.732;2022-08-11T09:36:01;5.85;;;1.50;;
55136;SDS011;41032;47.818;-3.732;2022-08-11T09:38:49;4.00;;;1.15;;
55136;SDS011;41032;47.818;-3.732;2022-08-11T09:41:37;5.43;;;1.27;;
55136;SDS011;41032;47.818;-3.732;2022-08-11T09:44:06;6.15;;;1.15;;
55136;SDS011;41032;47.818;-3.732;2022-08-11T09:46:55;5.00;;;1.30;;
55136;SDS011;41032;47.818;-3.732;2022-08-11T09:49:24;3.83;;;1.25;;
55136;SDS011;41032;47.818;-3.732;2022-08-11T09:51:53;3.78;;;1.05;;
55136;SDS011;41032;47.818;-3.732;2022-08-11T09:54:22;3.97;;;1.25;;
55136;SDS011;41032;47.818;-3.732;2022-08-11T09:56:52;2.13;;;1.20;;
55136;SDS011;41032;47.818;-3.732;2022-08-11T09:59:39;6.10;;;1.38;;
55136;SDS011;41032;47.818;-3.732;2022-08-11T10:02:08;3.03;;;1.02;;
55136;SDS011;41032;47.818;-3.732;2022-08-11T10:04:39;3.78;;;1.42;;
55136;SDS011;41032;47.818;-3.732;2022-08-11T10:07:11;5.75;;;1.02;;
55136;SDS011;41032;47.818;-3.732;2022-08-11T10:15:00;1.77;;;1.20;;
55136;SDS011;41032;47.818;-3.732;2022-08-11T10:17:51;7.65;;;1.90;;
55136;SDS011;41032;47.818;-3.732;2022-08-11T10:20:40;6.15;;;1.80;;
55136;SDS011;41032;47.818;-3.732;2022-08-11T10:23:10;5.00;;;1.42;;
55136;SDS011;41032;47.818;-3.732;2022-08-11T10:25:57;6.20;;;1.90;;
55136;SDS011;41032;47.818;-3.732;2022-08-11T10:28:44;4.25;;;1.60;;
55136;SDS011;41032;47.818;-3.732;2022-08-11T10:31:13;3.10;;;2.35;;
55136;SDS011;41032;47.818;-3.732;2022-08-11T10:34:00;5.78;;;2.08;;
55136;SDS011;41032;47.818;-3.732;2022-08-11T10:36:31;7.20;;;2.58;;
55136;SDS011;41032;47.818;-3.732;2022-08-11T10:39:01;3.40;;;1.67;;
55136;SDS011;41032;47.818;-3.732;2022-08-11T10:41:31;6.85;;;1.58;;
55136;SDS011;41032;47.818;-3.732;2022-08-11T10:44:20;9.32;;;1.58;;
55136;SDS011;41032;47.818;-3.732;2022-08-11T10:46:49;2.85;;;1.33;;
55136;SDS011;41032;47.818;-3.732;2022-08-11T10:49:38;7.32;;;1.42;;
55136;SDS011;41032;47.818;-3.732;2022-08-11T10:52:07;4.30;;;1.20;;
55136;SDS011;41032;47.818;-3.732;2022-08-11T10:54:54;1.80;;;0.90;;
55136;SDS011;41032;47.818;-3.732;2022-08-11T10:57:41;2.75;;;1.17;;
55136;SDS011;41032;47.818;-3.732;2022-08-11T11:00:28;5.40;;;1.48;;
55136;SDS011;41032;47.818;-3.732;2022-08-11T11:02:57;2.10;;;1.23;;
55136;SDS011;41032;47.818;-3.732;2022-08-11T11:05:28;7.57;;;1.85;;
55136;SDS011;41032;47.818;-3.732;2022-08-11T11:08:00;9.85;;;1.33;;
55136;SDS011;41032;47.818;-3.732;2022-08-11T11:10:56;5.00;;;1.42;;
55136;SDS011;41032;47.818;-3.732;2022-08-11T11:13:25;3.35;;;1.33;;
55136;SDS011;41032;47.818;-3.732;2022-08-11T11:16:12;4.82;;;1.30;;
55136;SDS011;41032;47.818;-3.732;2022-08-11T11:19:00;6.55;;;1.20;;
55136;SDS011;41032;47.818;-3.732;2022-08-11T11:21:33;5.72;;;1.65;;
55136;SDS011;41032;47.818;-3.732;2022-08-11T11:26:59;8.02;;;1.60;;
55136;SDS011;41032;47.818;-3.732;2022-08-11T11:32:23;6.38;;;1.10;;
55136;SDS011;41032;47.818;-3.732;2022-08-11T11:37:45;4.15;;;1.50;;
55136;SDS011;41032;47.818;-3.732;2022-08-11T11:40:16;3.42;;;1.42;;
55136;SDS011;41032;47.818;-3.732;2022-08-11T11:42:47;6.85;;;1.42;;
55136;SDS011;41032;47.818;-3.732;2022-08-11T11:45:17;5.13;;;0.93;;
55136;SDS011;41032;47.818;-3.732;2022-08-11T11:47:48;12.70;;;1.40;;
55136;SDS011;41032;47.818;-3.732;2022-08-11T11:50:23;3.28;;;1.25;;
55136;SDS011;41032;47.818;-3.732;2022-08-11T11:52:52;5.43;;;1.10;;
55136;SDS011;41032;47.818;-3.732;2022-08-11T11:55:22;6.32;;;1.48;;
55136;SDS011;41032;47.818;-3.732;2022-08-11T11:57:51;2.65;;;1.13;;
55136;SDS011;41032;47.818;-3.732;2022-08-11T12:00:38;6.53;;;1.13;;
55136;SDS011;41032;47.818;-3.732;2022-08-11T12:03:26;4.80;;;1.08;;
55136;SDS011;41032;47.818;-3.732;2022-08-11T12:05:54;1.77;;;1.30;;
55136;SDS011;41032;47.818;-3.732;2022-08-11T12:08:23;5.22;;;1.10;;
55136;SDS011;41032;47.818;-3.732;2022-08-11T12:10:52;4.03;;;1.25;;
55136;SDS011;41032;47.818;-3.732;2022-08-11T12:13:41;7.88;;;1.45;;
55136;SDS011;41032;47.818;-3.732;2022-08-11T12:16:12;10.77;;;1.30;;
55136;SDS011;41032;47.818;-3.732;2022-08-11T12:18:41;10.48;;;1.48;;
55136;SDS011;41032;47.818;-3.732;2022-08-11T12:21:12;5.32;;;1.40;;
55136;SDS011;41032;47.818;-3.732;2022-08-11T12:23:42;9.07;;;1.40;;
55136;SDS011;41032;47.818;-3.732;2022-08-11T12:26:30;10.55;;;1.77;;
55136;SDS011;41032;47.818;-3.732;2022-08-11T12:29:19;7.40;;;1.20;;
55136;SDS011;41032;47.818;-3.732;2022-08-11T12:31:52;2.55;;;1.15;;
55136;SDS011;41032;47.818;-3.732;2022-08-11T12:34:24;6.15;;;1.27;;
55136;SDS011;41032;47.818;-3.732;2022-08-11T12:36:55;5.72;;;1.30;;
55136;SDS011;41032;47.818;-3.732;2022-08-11T12:39:26;6.88;;;1.27;;
55136;SDS011;41032;47.818;-3.732;2022-08-11T12:42:17;9.35;;;1.67;;
55136;SDS011;41032;47.818;-3.732;2022-08-11T12:45:08;4.75;;;1.20;;
55136;SDS011;41032;47.818;-3.732;2022-08-11T12:48:00;6.90;;;1.20;;
55136;SDS011;41032;47.818;-3.732;2022-08-11T12:50:50;2.67;;;0.98;;
55136;SDS011;41032;47.818;-3.732;2022-08-11T12:53:41;8.05;;;1.23;;
55136;SDS011;41032;47.818;-3.732;2022-08-11T12:56:12;4.65;;;1.13;;
55136;SDS011;41032;47.818;-3.732;2022-08-11T12:58:59;9.85;;;1.73;;
55136;SDS011;41032;47.818;-3.732;2022-08-11T13:01:47;3.55;;;1.15;;
55136;SDS011;41032;47.818;-3.732;2022-08-11T13:07:10;6.45;;;1.33;;
55136;SDS011;41032;47.818;-3.732;2022-08-11T13:09:39;3.13;;;1.20;;
55136;SDS011;41032;47.818;-3.732;2022-08-11T13:12:09;3.08;;;1.20;;
55136;SDS011;41032;47.818;-3.732;2022-08-11T13:14:56;6.40;;;1.63;;
55136;SDS011;41032;47.818;-3.732;2022-08-11T13:17:26;3.90;;;1.40;;
55136;SDS011;41032;47.818;-3.732;2022-08-11T13:19:56;4.72;;;1.23;;
55136;SDS011;41032;47.818;-3.732;2022-08-11T13:22:25;7.20;;;1.23;;
55136;SDS011;41032;47.818;-3.732;2022-08-11T13:24:54;3.58;;;1.27;;
55136;SDS011;41032;47.818;-3.732;2022-08-11T13:27:22;6.78;;;1.70;;
55136;SDS011;41032;47.818;-3.732;2022-08-11T13:29:51;5.60;;;1.33;;
55136;SDS011;41032;47.818;-3.732;2022-08-11T13:32:39;5.57;;;1.48;;
55136;SDS011;41032;47.818;-3.732;2022-08-11T13:35:08;2.70;;;1.20;;
55136;SDS011;41032;47.818;-3.732;2022-08-11T13:37:43;6.25;;;1.50;;
55136;SDS011;41032;47.818;-3.732;2022-08-11T13:40:12;3.78;;;1.10;;
55136;SDS011;41032;47.818;-3.732;2022-08-11T13:42:40;4.75;;;1.40;;
55136;SDS011;41032;47.818;-3.732;2022-08-11T13:45:08;3.92;;;1.00;;
55136;SDS011;41032;47.818;-3.732;2022-08-11T13:50:13;4.63;;;1.20;;
55136;SDS011;41032;47.818;-3.732;2022-08-11T13:52:42;7.25;;;1.30;;
55136;SDS011;41032;47.818;-3.732;2022-08-11T13:55:11;5.78;;;1.60;;
55136;SDS011;41032;47.818;-3.732;2022-08-11T13:57:48;3.15;;;1.48;;
55136;SDS011;41032;47.818;-3.732;2022-08-11T14:02:54;4.43;;;1.17;;
55136;SDS011;41032;47.818;-3.732;2022-08-11T14:05:26;2.30;;;1.38;;
55136;SDS011;41032;47.818;-3.732;2022-08-11T14:08:00;3.03;;;1.73;;
55136;SDS011;41032;47.818;-3.732;2022-08-11T14:10:30;3.80;;;1.17;;
55136;SDS011;41032;47.818;-3.732;2022-08-11T14:13:00;2.45;;;1.65;;
55136;SDS011;41032;47.818;-3.732;2022-08-11T14:15:51;6.57;;;1.27;;
55136;SDS011;41032;47.818;-3.732;2022-08-11T14:18:21;4.60;;;1.23;;
55136;SDS011;41032;47.818;-3.732;2022-08-11T14:20:53;2.22;;;1.10;;
55136;SDS011;41032;47.818;-3.732;2022-08-11T14:23:43;3.05;;;0.90;;
55136;SDS011;41032;47.818;-3.732;2022-08-11T14:26:13;4.40;;;1.40;;
55136;SDS011;41032;47.818;-3.732;2022-08-11T14:28:53;5.32;;;1.40;;
55136;SDS011;41032;47.818;-3.732;2022-08-11T14:31:23;5.93;;;1.33;;
55136;SDS011;41032;47.818;-3.732;2022-08-11T14:33:52;3.80;;;1.02;;
55136;SDS011;41032;47.818;-3.732;2022-08-11T14:36:23;3.33;;;1.30;;
55136;SDS011;41032;47.818;-3.732;2022-08-11T14:38:52;3.20;;;1.10;;
55136;SDS011;41032;47.818;-3.732;2022-08-11T14:41:21;5.65;;;0.93;;
55136;SDS011;41032;47.818;-3.732;2022-08-11T14:44:09;3.13;;;1.25;;
55136;SDS011;41032;47.818;-3.732;2022-08-11T14:46:56;5.82;;;1.10;;
55136;SDS011;41032;47.818;-3.732;2022-08-11T14:49:39;4.28;;;1.20;;
55136;SDS011;41032;47.818;-3.732;2022-08-11T14:52:09;4.72;;;1.20;;
55136;SDS011;41032;47.818;-3.732;2022-08-11T14:54:41;6.85;;;1.55;;
55136;SDS011;41032;47.818;-3.732;2022-08-11T14:57:28;4.75;;;1.50;;
55136;SDS011;41032;47.818;-3.732;2022-08-11T14:59:58;10.07;;;1.20;;
55136;SDS011;41032;47.818;-3.732;2022-08-11T15:02:28;8.77;;;1.48;;
55136;SDS011;41032;47.818;-3.732;2022-08-11T15:05:16;8.10;;;1.67;;
55136;SDS011;41032;47.818;-3.732;2022-08-11T15:07:45;7.20;;;1.30;;
55136;SDS011;41032;47.818;-3.732;2022-08-11T15:10:13;5.05;;;1.25;;
55136;SDS011;41032;47.818;-3.732;2022-08-11T15:12:42;6.63;;;1.50;;
55136;SDS011;41032;47.818;-3.732;2022-08-11T15:15:10;9.48;;;1.90;;
55136;SDS011;41032;47.818;-3.732;2022-08-11T15:17:58;5.47;;;1.38;;
55136;SDS011;41032;47.818;-3.732;2022-08-11T15:20:29;6.53;;;1.60;;
55136;SDS011;41032;47.818;-3.732;2022-08-11T15:23:16;6.78;;;1.52;;
55136;SDS011;41032;47.818;-3.732;2022-08-11T15:26:05;3.30;;;1.20;;
55136;SDS011;41032;47.818;-3.732;2022-08-11T15:28:37;9.80;;;1.73;;
55136;SDS011;41032;47.818;-3.732;2022-08-11T15:31:27;8.07;;;1.35;;
55136;SDS011;41032;47.818;-3.732;2022-08-11T15:34:14;8.98;;;1.38;;
55136;SDS011;41032;47.818;-3.732;2022-08-11T15:37:10;5.00;;;1.27;;
55136;SDS011;41032;47.818;-3.732;2022-08-11T15:43:08;2.28;;;1.08;;
55136;SDS011;41032;47.818;-3.732;2022-08-11T15:46:15;6.37;;;1.10;;
55136;SDS011;41032;47.818;-3.732;2022-08-11T15:48:50;8.13;;;1.35;;
55136;SDS011;41032;47.818;-3.732;2022-08-11T15:51:34;2.03;;;1.10;;
55136;SDS011;41032;47.818;-3.732;2022-08-11T15:54:04;3.05;;;1.60;;
55136;SDS011;41032;47.818;-3.732;2022-08-11T15:56:36;9.27;;;1.20;;
55136;SDS011;41032;47.818;-3.732;2022-08-11T15:59:07;11.18;;;1.33;;
55136;SDS011;41032;47.818;-3.732;2022-08-11T16:01:56;7.70;;;1.42;;
55136;SDS011;41032;47.818;-3.732;2022-08-11T16:04:50;5.70;;;1.20;;
55136;SDS011;41032;47.818;-3.732;2022-08-11T16:07:20;9.18;;;1.33;;
55136;SDS011;41032;47.818;-3.732;2022-08-11T16:09:52;6.45;;;1.42;;
55136;SDS011;41032;47.818;-3.732;2022-08-11T16:12:24;3.92;;;1.10;;
55136;SDS011;41032;47.818;-3.732;2022-08-11T16:14:57;6.60;;;0.98;;
55136;SDS011;41032;47.818;-3.732;2022-08-11T16:17:51;7.28;;;1.10;;
55136;SDS011;41032;47.818;-3.732;2022-08-11T16:20:24;3.50;;;1.10;;
55136;SDS011;41032;47.818;-3.732;2022-08-11T16:22:55;5.78;;;1.30;;
55136;SDS011;41032;47.818;-3.732;2022-08-11T16:25:25;3.10;;;1.13;;
55136;SDS011;41032;47.818;-3.732;2022-08-11T16:27:55;6.25;;;1.52;;
55136;SDS011;41032;47.818;-3.732;2022-08-11T16:30:30;3.08;;;1.15;;
55136;SDS011;41032;47.818;-3.732;2022-08-11T16:33:00;2.47;;;1.23;;
55136;SDS011;41032;47.818;-3.732;2022-08-11T16:35:31;11.27;;;1.50;;
55136;SDS011;41032;47.818;-3.732;2022-08-11T16:38:19;4.63;;;1.05;;
55136;SDS011;41032;47.818;-3.732;2022-08-11T16:41:13;6.10;;;1.13;;
55136;SDS011;41032;47.818;-3.732;2022-08-11T16:44:02;3.58;;;1.42;;
55136;SDS011;41032;47.818;-3.732;2022-08-11T16:46:49;5.38;;;1.13;;
55136;SDS011;41032;47.818;-3.732;2022-08-11T16:49:30;4.65;;;1.38;;
55136;SDS011;41032;47.818;-3.732;2022-08-11T16:52:01;4.80;;;1.00;;
55136;SDS011;41032;47.818;-3.732;2022-08-11T16:54:34;3.90;;;1.10;;
55136;SDS011;41032;47.818;-3.732;2022-08-11T16:57:02;4.57;;;1.52;;
55136;SDS011;41032;47.818;-3.732;2022-08-11T17:00:08;3.17;;;0.90;;
55136;SDS011;41032;47.818;-3.732;2022-08-11T17:02:41;5.78;;;1.40;;
55136;SDS011;41032;47.818;-3.732;2022-08-11T17:05:32;5.07;;;1.40;;
55136;SDS011;41032;47.818;-3.732;2022-08-11T17:08:22;12.18;;;1.90;;
55136;SDS011;41032;47.818;-3.732;2022-08-11T17:11:19;4.10;;;1.27;;
55136;SDS011;41032;47.818;-3.732;2022-08-11T17:14:10;2.63;;;1.30;;
55136;SDS011;41032;47.818;-3.732;2022-08-11T17:16:41;2.95;;;1.00;;
55136;SDS011;41032;47.818;-3.732;2022-08-11T17:21:46;9.60;;;2.10;;
55136;SDS011;41032;47.818;-3.732;2022-08-11T17:24:36;9.68;;;2.80;;
55136;SDS011;41032;47.818;-3.732;2022-08-11T17:27:06;12.90;;;4.65;;
55136;SDS011;41032;47.818;-3.732;2022-08-11T17:29:39;8.27;;;2.63;;
55136;SDS011;41032;47.818;-3.732;2022-08-11T17:32:30;6.60;;;2.70;;
55136;SDS011;41032;47.818;-3.732;2022-08-11T17:37:58;6.13;;;1.85;;
55136;SDS011;41032;47.818;-3.732;2022-08-11T17:40:31;10.77;;;2.25;;
55136;SDS011;41032;47.818;-3.732;2022-08-11T17:43:06;12.85;;;2.33;;
55136;SDS011;41032;47.818;-3.732;2022-08-11T17:45:54;10.38;;;1.95;;
55136;SDS011;41032;47.818;-3.732;2022-08-11T17:48:42;5.32;;;1.52;;
55136;SDS011;41032;47.818;-3.732;2022-08-11T17:51:13;4.57;;;1.95;;
55136;SDS011;41032;47.818;-3.732;2022-08-11T17:54:02;8.55;;;1.98;;
55136;SDS011;41032;47.818;-3.732;2022-08-11T17:56:51;8.23;;;1.70;;
55136;SDS011;41032;47.818;-3.732;2022-08-11T17:59:39;3.25;;;1.52;;
55136;SDS011;41032;47.818;-3.732;2022-08-11T18:02:40;5.55;;;1.30;;
55136;SDS011;41032;47.818;-3.732;2022-08-11T18:05:30;3.97;;;1.58;;
55136;SDS011;41032;47.818;-3.732;2022-08-11T18:08:00;5.40;;;1.10;;
55136;SDS011;41032;47.818;-3.732;2022-08-11T18:10:51;4.38;;;1.38;;
55136;SDS011;41032;47.818;-3.732;2022-08-11T18:13:39;6.50;;;1.23;;
55136;SDS011;41032;47.818;-3.732;2022-08-11T18:16:29;6.00;;;1.17;;
55136;SDS011;41032;47.818;-3.732;2022-08-11T18:19:16;5.70;;;1.17;;
55136;SDS011;41032;47.818;-3.732;2022-08-11T18:22:12;2.92;;;1.20;;
55136;SDS011;41032;47.818;-3.732;2022-08-11T18:25:05;6.10;;;1.60;;
55136;SDS011;41032;47.818;-3.732;2022-08-11T18:27:54;8.68;;;1.83;;
55136;SDS011;41032;47.818;-3.732;2022-08-11T18:30:43;3.00;;;1.60;;
55136;SDS011;41032;47.818;-3.732;2022-08-11T18:33:35;5.90;;;1.20;;
55136;SDS011;41032;47.818;-3.732;2022-08-11T18:36:30;11.18;;;1.52;;
55136;SDS011;41032;47.818;-3.732;2022-08-11T18:39:21;10.40;;;1.70;;
55136;SDS011;41032;47.818;-3.732;2022-08-11T18:42:11;6.57;;;1.40;;
55136;SDS011;41032;47.818;-3.732;2022-08-11T18:45:01;5.97;;;1.75;;
55136;SDS011;41032;47.818;-3.732;2022-08-11T18:47:49;8.98;;;2.15;;
55136;SDS011;41032;47.818;-3.732;2022-08-11T18:50:37;14.32;;;2.97;;
55136;SDS011;41032;47.818;-3.732;2022-08-11T18:53:24;9.02;;;2.75;;
55136;SDS011;41032;47.818;-3.732;2022-08-11T18:56:14;9.35;;;2.33;;
55136;SDS011;41032;47.818;-3.732;2022-08-11T18:59:03;5.75;;;2.10;;
55136;SDS011;41032;47.818;-3.732;2022-08-11T19:01:50;7.15;;;2.08;;
55136;SDS011;41032;47.818;-3.732;2022-08-11T19:04:38;5.35;;;1.55;;
55136;SDS011;41032;47.818;-3.732;2022-08-11T19:07:27;7.40;;;2.20;;
55136;SDS011;41032;47.818;-3.732;2022-08-11T19:10:16;5.30;;;1.48;;
55136;SDS011;41032;47.818;-3.732;2022-08-11T19:13:05;4.70;;;1.90;;
55136;SDS011;41032;47.818;-3.732;2022-08-11T19:15:54;6.22;;;2.08;;